Weather at Protezione Civile Valtrigno

Public forecast

Using degrees Celsius for public forecast. Weather courtesy of forecast.io.

Closest aviation weather report (METAR) to Protezione Civile Valtrigno

Closest report is Abruzzo Airport, 37.4 nm (69.3 km) NNW.

2023/03/24 06:20 (retrieved 23 minutes ago)

LIBP 240620Z AUTO 20003KT 9999 NCD 10/07 Q1017

Closest aviation forecast (TAF) to Protezione Civile Valtrigno

Closest forecast is Abruzzo Airport, 37.4 nm (69.3 km) NNW.

2023/03/24 06:00 (retrieved 43 minutes ago)

TAF LIBP 240500Z 2406/2506 24006KT CAVOK BECMG 2409/2411 07010KT BECMG 2415/2417 VRB05KT